createdAt,value
2022-11-05T00:01:29.562Z,12.40
2022-11-05T00:04:51.633Z,12.43
2022-11-05T00:08:13.903Z,12.65
2022-11-05T00:11:18.406Z,12.50
2022-11-05T00:14:40.564Z,11.77
2022-11-05T00:17:44.000Z,12.47
2022-11-05T00:20:47.418Z,11.47
2022-11-05T00:24:09.420Z,11.75
2022-11-05T00:27:13.041Z,12.45
2022-11-05T00:30:22.376Z,11.77
2022-11-05T00:33:25.652Z,12.73
2022-11-05T00:36:28.945Z,13.00
2022-11-05T00:39:32.227Z,12.43
2022-11-05T00:42:53.976Z,11.27
2022-11-05T00:45:57.236Z,11.90
2022-11-05T00:49:19.085Z,11.33
2022-11-05T00:52:40.735Z,11.97
2022-11-05T00:55:46.049Z,12.10
2022-11-05T00:58:49.430Z,13.55
2022-11-05T01:01:52.861Z,10.85
2022-11-05T01:04:56.302Z,10.97
2022-11-05T01:08:00.000Z,11.53
2022-11-05T01:11:12.772Z,11.48
2022-11-05T01:14:16.509Z,12.25
2022-11-05T01:17:19.789Z,10.88
2022-11-05T01:20:23.285Z,11.37
2022-11-05T01:23:26.592Z,11.43
2022-11-05T01:26:30.044Z,11.65
2022-11-05T01:29:33.398Z,12.07
2022-11-05T01:32:37.732Z,11.52
2022-11-05T01:35:41.080Z,11.93
2022-11-05T01:38:44.425Z,11.10
2022-11-05T01:41:47.833Z,10.80
2022-11-05T01:45:02.429Z,13.63
2022-11-05T01:48:31.568Z,12.93
2022-11-05T01:51:34.990Z,13.10
2022-11-05T01:54:38.274Z,11.40
2022-11-05T01:57:41.714Z,11.52
2022-11-05T02:00:45.495Z,11.30
2022-11-05T02:03:52.075Z,13.00
2022-11-05T02:06:55.785Z,12.03
2022-11-05T02:10:13.768Z,12.17
2022-11-05T02:13:17.190Z,12.45
2022-11-05T02:16:37.837Z,11.63
2022-11-05T02:19:47.424Z,10.88
2022-11-05T02:23:09.620Z,12.03
2022-11-05T02:26:30.884Z,11.77
2022-11-05T02:29:34.169Z,11.50
2022-11-05T02:32:56.465Z,11.68
2022-11-05T02:36:16.172Z,11.02
2022-11-05T02:39:34.180Z,11.90
2022-11-05T02:42:53.653Z,12.30
2022-11-05T02:46:33.991Z,10.95
2022-11-05T02:49:42.903Z,10.73
2022-11-05T02:53:16.348Z,11.60
2022-11-05T02:56:26.425Z,11.60
2022-11-05T02:59:29.983Z,11.27
2022-11-05T03:02:33.858Z,10.93
2022-11-05T03:06:06.467Z,12.18
2022-11-05T03:09:45.923Z,11.32
2022-11-05T03:12:58.592Z,11.83
2022-11-05T03:16:12.400Z,11.17
2022-11-05T03:19:24.981Z,11.20
2022-11-05T03:22:37.351Z,11.30
2022-11-05T03:25:47.415Z,10.77
2022-11-05T03:29:02.614Z,12.13
2022-11-05T03:32:06.855Z,12.13
2022-11-05T03:35:15.446Z,11.80
2022-11-05T03:38:34.209Z,11.20
2022-11-05T03:41:43.334Z,11.05
2022-11-05T03:44:50.818Z,10.87
2022-11-05T03:47:58.296Z,11.57
2022-11-05T03:51:10.774Z,11.40
2022-11-05T03:54:14.639Z,11.13
2022-11-05T03:57:40.180Z,11.07
2022-11-05T04:00:43.657Z,13.20
2022-11-05T04:03:47.464Z,11.37
2022-11-05T04:07:09.256Z,12.15
2022-11-05T04:10:31.553Z,11.15
2022-11-05T04:13:35.003Z,12.02
2022-11-05T04:16:57.006Z,11.13
2022-11-05T04:20:19.111Z,11.40
2022-11-05T04:23:41.144Z,10.50
2022-11-05T04:26:45.425Z,12.13
2022-11-05T04:30:07.680Z,11.13
2022-11-05T04:33:15.829Z,11.63
2022-11-05T04:36:19.738Z,11.00
2022-11-05T04:39:23.025Z,11.05
2022-11-05T04:42:26.320Z,11.23
2022-11-05T04:45:34.309Z,11.45
2022-11-05T04:48:38.325Z,11.97
2022-11-05T04:51:41.629Z,10.97
2022-11-05T04:54:44.878Z,11.13
2022-11-05T04:57:49.797Z,11.77
2022-11-05T05:00:53.126Z,11.27
2022-11-05T05:03:56.453Z,12.43
2022-11-05T05:06:59.876Z,11.77
2022-11-05T05:10:06.080Z,12.02
2022-11-05T05:13:12.085Z,12.55
2022-11-05T05:16:24.769Z,13.13
2022-11-05T05:19:28.409Z,12.33
2022-11-05T05:22:31.724Z,11.20
2022-11-05T05:25:35.061Z,11.18
2022-11-05T05:28:38.492Z,10.30
2022-11-05T05:31:42.042Z,10.45
2022-11-05T05:34:45.308Z,10.80
2022-11-05T05:37:48.632Z,11.50
2022-11-05T05:40:52.161Z,10.90
2022-11-05T05:43:55.412Z,10.80
2022-11-05T05:46:58.793Z,11.43
2022-11-05T05:50:02.221Z,10.83
2022-11-05T05:53:05.570Z,11.23
2022-11-05T05:56:08.874Z,11.02
2022-11-05T05:59:12.826Z,10.93
2022-11-05T06:02:16.358Z,11.88
2022-11-05T06:05:19.736Z,11.00
2022-11-05T06:08:22.997Z,10.87
2022-11-05T06:11:26.461Z,10.90
2022-11-05T06:14:29.788Z,10.63
2022-11-05T06:17:34.280Z,11.02
2022-11-05T06:20:37.648Z,11.03
2022-11-05T06:23:43.477Z,11.70
2022-11-05T06:26:46.873Z,11.25
2022-11-05T06:29:50.203Z,10.65
2022-11-05T06:32:53.683Z,11.88
2022-11-05T06:36:00.388Z,11.80
2022-11-05T06:39:03.785Z,11.30
2022-11-05T06:42:22.339Z,11.88
2022-11-05T06:45:25.693Z,13.38
2022-11-05T06:48:29.580Z,12.30
2022-11-05T06:51:33.029Z,11.17
2022-11-05T06:54:36.312Z,12.87
2022-11-05T06:57:39.644Z,12.15
2022-11-05T07:00:43.064Z,13.05
2022-11-05T07:03:49.034Z,14.75
2022-11-05T07:06:52.359Z,14.30
2022-11-05T07:09:55.718Z,22.23
2022-11-05T07:13:02.391Z,17.83
2022-11-05T07:16:08.879Z,15.23
2022-11-05T07:19:12.318Z,14.00
2022-11-05T07:22:15.928Z,14.10
2022-11-05T07:25:19.241Z,13.17
2022-11-05T07:28:22.536Z,12.80
2022-11-05T07:31:25.779Z,12.60
2022-11-05T07:34:29.338Z,12.32
2022-11-05T07:37:32.659Z,12.77
2022-11-05T07:40:36.013Z,13.07
2022-11-05T07:43:39.369Z,13.25
2022-11-05T07:46:42.847Z,13.85
2022-11-05T07:49:46.100Z,15.48
2022-11-05T07:52:49.555Z,17.67
2022-11-05T07:55:52.807Z,16.73
2022-11-05T07:58:56.073Z,15.65
2022-11-05T08:01:59.556Z,16.77
2022-11-05T08:05:03.092Z,16.85
2022-11-05T08:08:07.848Z,16.77
2022-11-05T08:11:12.803Z,16.33
2022-11-05T08:14:16.075Z,16.75
2022-11-05T08:17:19.410Z,16.55
2022-11-05T08:20:22.746Z,15.65
2022-11-05T08:23:27.019Z,19.50
2022-11-05T08:26:30.275Z,16.13
2022-11-05T08:29:33.551Z,17.38
2022-11-05T08:32:36.801Z,17.05
2022-11-05T08:35:40.338Z,17.55
2022-11-05T08:38:44.024Z,17.63
2022-11-05T08:41:47.374Z,18.03
2022-11-05T08:44:50.595Z,15.63
2022-11-05T08:48:04.485Z,16.20
2022-11-05T08:51:08.013Z,17.95
2022-11-05T08:54:11.917Z,21.40
2022-11-05T08:57:15.197Z,21.13
2022-11-05T09:00:18.725Z,18.42
2022-11-05T09:03:22.104Z,16.20
2022-11-05T09:06:25.462Z,15.85
2022-11-05T09:09:29.178Z,16.23
2022-11-05T09:12:32.578Z,15.67
2022-11-05T09:15:35.934Z,14.93
2022-11-05T09:18:39.868Z,15.55
2022-11-05T09:21:44.641Z,13.30
2022-11-05T09:24:47.981Z,14.83
2022-11-05T09:27:51.332Z,14.23
2022-11-05T09:30:55.095Z,14.27
2022-11-05T09:33:58.488Z,14.35
2022-11-05T09:37:01.931Z,13.15
2022-11-05T09:40:05.971Z,13.53
2022-11-05T09:43:17.070Z,13.37
2022-11-05T09:46:24.617Z,12.98
2022-11-05T09:49:41.409Z,13.75
2022-11-05T09:52:44.970Z,12.82
2022-11-05T09:55:57.237Z,11.80
2022-11-05T09:59:27.659Z,12.60
2022-11-05T10:02:35.776Z,11.82
2022-11-05T10:05:40.753Z,12.07
2022-11-05T10:08:47.365Z,11.45
2022-11-05T10:11:56.627Z,11.50
2022-11-05T10:15:43.002Z,10.57
2022-11-05T10:18:53.701Z,10.52
2022-11-05T10:22:16.472Z,10.77
2022-11-05T10:25:22.149Z,11.90
2022-11-05T10:28:29.304Z,9.90
2022-11-05T10:31:37.210Z,10.90
2022-11-05T10:34:41.598Z,11.55
2022-11-05T10:37:46.824Z,10.90
2022-11-05T10:41:03.628Z,10.35
2022-11-05T10:44:34.713Z,11.00
2022-11-05T10:47:56.032Z,10.70
2022-11-05T10:51:00.948Z,10.60
2022-11-05T10:54:21.923Z,10.13
2022-11-05T10:57:31.095Z,11.25
2022-11-05T11:00:34.641Z,11.67
2022-11-05T11:03:49.181Z,10.80
2022-11-05T11:06:55.089Z,11.95
2022-11-05T11:09:59.125Z,11.88
2022-11-05T11:13:03.339Z,11.93
2022-11-05T11:16:20.297Z,12.00
2022-11-05T11:19:31.341Z,12.17
2022-11-05T11:22:34.702Z,11.90
2022-11-05T11:26:03.676Z,12.60
2022-11-05T11:29:16.306Z,11.23
2022-11-05T11:32:21.888Z,11.60
2022-11-05T11:35:26.212Z,12.37
2022-11-05T11:38:33.135Z,11.98
2022-11-05T11:41:44.059Z,11.35
2022-11-05T11:44:49.074Z,11.80
2022-11-05T11:47:52.761Z,12.20
2022-11-05T11:50:57.501Z,11.87
2022-11-05T11:54:02.524Z,12.60
2022-11-05T11:57:21.036Z,11.95
2022-11-05T12:00:26.965Z,11.70
2022-11-05T12:03:51.017Z,12.57
2022-11-05T12:07:40.612Z,11.50
2022-11-05T12:11:30.214Z,11.00
2022-11-05T12:15:00.814Z,12.88
2022-11-05T12:18:26.214Z,12.40
2022-11-05T12:21:57.401Z,13.20
2022-11-05T12:25:15.710Z,12.63
2022-11-05T12:28:31.159Z,13.13
2022-11-05T12:31:53.659Z,14.18
2022-11-05T12:35:18.895Z,14.73
2022-11-05T12:38:41.077Z,13.20
2022-11-05T12:41:58.493Z,12.43
2022-11-05T12:45:23.494Z,12.30
2022-11-05T12:48:52.759Z,13.35
2022-11-05T12:52:28.199Z,15.68
2022-11-05T12:55:51.665Z,16.43
2022-11-05T12:59:14.590Z,15.07
2022-11-05T13:02:22.535Z,16.15
2022-11-05T13:06:01.479Z,15.73
2022-11-05T13:09:33.629Z,14.15
2022-11-05T13:12:41.887Z,14.27
2022-11-05T13:15:56.015Z,14.67
2022-11-05T13:19:09.358Z,14.25
2022-11-05T13:22:54.184Z,15.35
2022-11-05T13:26:19.529Z,31.40
2022-11-05T13:29:41.396Z,30.47
2022-11-05T13:33:04.292Z,21.80
2022-11-05T13:36:49.110Z,22.27
2022-11-05T13:39:54.205Z,18.00
2022-11-05T13:43:00.693Z,15.77
2022-11-05T13:46:42.211Z,17.00
2022-11-05T13:49:54.318Z,17.93
2022-11-05T13:53:26.262Z,20.50
2022-11-05T13:56:55.192Z,20.90
2022-11-05T14:00:23.738Z,18.95
2022-11-05T14:03:27.688Z,19.00
2022-11-05T14:06:35.502Z,19.73
2022-11-05T14:09:40.393Z,21.55
2022-11-05T14:12:49.445Z,21.40
2022-11-05T14:16:02.629Z,19.90
2022-11-05T14:19:28.073Z,19.53
2022-11-05T14:22:34.096Z,18.60
2022-11-05T14:25:37.452Z,17.05
2022-11-05T14:28:47.822Z,16.75
2022-11-05T14:32:12.582Z,16.65
2022-11-05T14:35:16.925Z,17.60
2022-11-05T14:38:26.854Z,16.00
2022-11-05T14:41:30.334Z,16.60
2022-11-05T14:44:35.877Z,16.58
2022-11-05T14:47:43.047Z,19.85
2022-11-05T14:50:47.221Z,25.83
2022-11-05T14:53:51.075Z,31.90
2022-11-05T14:56:59.964Z,31.92
2022-11-05T15:00:04.520Z,28.95
2022-11-05T15:03:32.951Z,29.30
2022-11-05T15:06:37.261Z,33.13
2022-11-05T15:09:55.180Z,25.33
2022-11-05T15:13:06.134Z,32.85
2022-11-05T15:16:10.906Z,29.90
2022-11-05T15:19:31.578Z,30.25
2022-11-05T15:22:48.627Z,29.27
2022-11-05T15:26:13.129Z,27.37
2022-11-05T15:29:24.422Z,26.08
2022-11-05T15:32:28.241Z,28.23
2022-11-05T15:35:37.858Z,29.85
2022-11-05T15:38:52.112Z,35.80
2022-11-05T15:42:13.937Z,32.47
2022-11-05T15:45:21.366Z,37.58
2022-11-05T15:48:24.745Z,38.22
2022-11-05T15:51:29.455Z,34.42
2022-11-05T15:54:33.164Z,37.27
2022-11-05T15:57:40.311Z,31.10
2022-11-05T16:00:49.151Z,26.45
2022-11-05T16:03:55.207Z,28.35
2022-11-05T16:07:01.610Z,23.27
2022-11-05T16:10:10.056Z,22.93
2022-11-05T16:13:35.384Z,26.93
2022-11-05T16:16:38.911Z,23.55
2022-11-05T16:19:43.340Z,22.92
2022-11-05T16:22:53.985Z,23.70
2022-11-05T16:25:57.848Z,26.47
2022-11-05T16:29:09.552Z,25.00
2022-11-05T16:32:26.853Z,26.38
2022-11-05T16:35:33.860Z,29.13
2022-11-05T16:38:37.606Z,29.52
2022-11-05T16:41:44.149Z,30.87
2022-11-05T16:44:48.224Z,28.60
2022-11-05T16:47:52.582Z,30.10
2022-11-05T16:50:56.550Z,32.92
2022-11-05T16:54:00.320Z,32.70
2022-11-05T16:57:11.778Z,33.33
2022-11-05T17:00:20.389Z,27.37
2022-11-05T17:03:24.263Z,27.67
2022-11-05T17:06:28.000Z,26.17
2022-11-05T17:09:32.071Z,25.48
2022-11-05T17:12:36.517Z,25.60
2022-11-05T17:15:40.530Z,24.60
2022-11-05T17:18:45.297Z,25.52
2022-11-05T17:21:50.210Z,27.08
2022-11-05T17:24:54.111Z,24.73
2022-11-05T17:27:59.318Z,26.80
2022-11-05T17:31:06.069Z,24.67
2022-11-05T17:34:10.782Z,23.08
2022-11-05T17:37:14.616Z,24.83
2022-11-05T17:40:22.496Z,21.60
2022-11-05T17:43:26.324Z,19.30
2022-11-05T17:46:29.997Z,17.93
2022-11-05T17:49:33.923Z,18.30
2022-11-05T17:52:37.616Z,19.90
2022-11-05T17:55:45.795Z,17.70
2022-11-05T17:58:49.669Z,17.97
2022-11-05T18:01:53.597Z,16.07
2022-11-05T18:04:57.444Z,16.75
2022-11-05T18:08:01.388Z,15.60
2022-11-05T18:11:05.453Z,14.70
2022-11-05T18:14:10.124Z,13.93
2022-11-05T18:17:13.968Z,12.77
2022-11-05T18:20:19.710Z,12.65
2022-11-05T18:23:23.358Z,11.70
2022-11-05T18:26:27.310Z,11.30
2022-11-05T18:29:31.265Z,10.93
2022-11-05T18:32:35.387Z,10.03
2022-11-05T18:35:45.663Z,10.35
2022-11-05T18:38:50.240Z,9.13
2022-11-05T18:41:54.672Z,10.18
2022-11-05T18:44:58.585Z,10.70
2022-11-05T18:48:03.315Z,8.90
2022-11-05T18:51:15.920Z,8.38
2022-11-05T18:54:20.085Z,7.82
2022-11-05T18:57:23.975Z,7.35
2022-11-05T19:00:28.062Z,7.00
2022-11-05T19:03:33.604Z,7.27
2022-11-05T19:06:38.638Z,7.45
2022-11-05T19:09:42.611Z,7.15
2022-11-05T19:12:46.390Z,6.95
2022-11-05T19:15:50.702Z,7.27
2022-11-05T19:18:57.860Z,7.10
2022-11-05T19:22:03.616Z,6.78
2022-11-05T19:25:07.991Z,7.75
2022-11-05T19:28:12.193Z,6.78
2022-11-05T19:31:22.085Z,6.03
2022-11-05T19:34:26.074Z,6.60
2022-11-05T19:37:29.847Z,6.20
2022-11-05T19:40:33.567Z,5.93
2022-11-05T19:43:38.847Z,5.80
2022-11-05T19:46:44.066Z,5.27
2022-11-05T19:49:47.972Z,5.00
2022-11-05T19:52:51.888Z,4.03
2022-11-05T19:55:55.703Z,4.70
2022-11-05T19:59:00.985Z,4.75
2022-11-05T20:02:05.856Z,4.90
2022-11-05T20:05:10.878Z,4.87
2022-11-05T20:08:15.449Z,4.72
2022-11-05T20:11:19.477Z,5.00
2022-11-05T20:14:24.538Z,5.00
2022-11-05T20:17:28.375Z,4.67
2022-11-05T20:20:32.756Z,4.90
2022-11-05T20:23:36.779Z,4.22
2022-11-05T20:26:40.844Z,4.72
2022-11-05T20:29:44.555Z,3.85
2022-11-05T20:32:48.349Z,4.20
2022-11-05T20:35:52.097Z,3.93
2022-11-05T20:39:02.924Z,3.75
2022-11-05T20:42:06.807Z,3.75
2022-11-05T20:45:11.927Z,4.07
2022-11-05T20:48:15.774Z,3.90
2022-11-05T20:51:21.458Z,3.63
2022-11-05T20:54:25.488Z,3.65
2022-11-05T20:57:29.260Z,3.47
2022-11-05T21:00:33.004Z,3.40
2022-11-05T21:03:40.084Z,3.60
2022-11-05T21:06:44.177Z,3.53
2022-11-05T21:09:47.741Z,3.22
2022-11-05T21:12:52.449Z,3.17
2022-11-05T21:15:58.438Z,3.10
2022-11-05T21:19:02.068Z,3.20
2022-11-05T21:22:07.306Z,2.77
2022-11-05T21:25:11.374Z,3.03
2022-11-05T21:28:16.174Z,2.97
2022-11-05T21:31:19.994Z,2.90
2022-11-05T21:34:24.083Z,3.17
2022-11-05T21:37:27.959Z,3.23
2022-11-05T21:40:31.485Z,2.63
2022-11-05T21:43:35.507Z,2.90
2022-11-05T21:46:39.108Z,3.08
2022-11-05T21:49:43.023Z,2.83
2022-11-05T21:53:05.323Z,3.10
2022-11-05T21:56:32.679Z,3.10
2022-11-05T21:59:48.724Z,4.32
2022-11-05T22:02:52.420Z,4.78
2022-11-05T22:05:57.395Z,5.10
2022-11-05T22:09:01.128Z,3.13
2022-11-05T22:12:05.338Z,2.60
2022-11-05T22:15:09.434Z,2.80
2022-11-05T22:18:14.343Z,2.47
2022-11-05T22:21:19.354Z,2.30
2022-11-05T22:24:23.410Z,2.20
2022-11-05T22:27:26.854Z,2.30
2022-11-05T22:30:32.838Z,2.35
2022-11-05T22:33:36.381Z,2.03
2022-11-05T22:36:40.058Z,2.20
2022-11-05T22:39:43.578Z,2.17
2022-11-05T22:42:47.179Z,2.50
2022-11-05T22:45:50.728Z,2.22
2022-11-05T22:48:56.023Z,2.40
2022-11-05T22:51:59.482Z,2.50
2022-11-05T22:55:04.993Z,2.27
2022-11-05T22:58:09.134Z,2.60
2022-11-05T23:01:14.102Z,2.53
2022-11-05T23:04:17.764Z,3.40
2022-11-05T23:07:39.893Z,3.47
2022-11-05T23:11:02.746Z,3.57
2022-11-05T23:14:11.617Z,3.10
2022-11-05T23:17:33.572Z,2.30
2022-11-05T23:20:55.568Z,2.30
2022-11-05T23:24:04.614Z,2.50
2022-11-05T23:27:08.096Z,2.37
2022-11-05T23:30:15.039Z,2.50
2022-11-05T23:33:19.676Z,2.40
2022-11-05T23:36:41.556Z,2.28
2022-11-05T23:39:45.081Z,2.40
2022-11-05T23:43:07.601Z,2.70
2022-11-05T23:46:29.633Z,2.25
2022-11-05T23:49:33.250Z,2.35
2022-11-05T23:52:36.580Z,2.45
2022-11-05T23:55:40.138Z,2.30
2022-11-05T23:58:43.575Z,2.80
